createdAt,value
2018-06-08T05:49:38.003Z,12.30
2018-06-08T05:55:25.599Z,12.60
2018-06-08T06:09:34.481Z,11.17
2018-06-08T06:24:46.414Z,10.53
2018-06-08T06:27:18.320Z,10.93
2018-06-08T06:29:47.538Z,10.90
2018-06-08T06:32:15.371Z,11.03
2018-06-08T06:34:44.056Z,13.03
2018-06-08T06:37:14.693Z,13.80
2018-06-08T06:39:43.412Z,15.37
2018-06-08T06:42:11.176Z,16.00
2018-06-08T06:44:39.213Z,15.30
2018-06-08T06:47:07.057Z,15.23
2018-06-08T06:49:34.590Z,14.77
2018-06-08T06:52:03.789Z,14.23
2018-06-08T06:54:45.032Z,15.10
2018-06-08T06:57:13.930Z,13.03
2018-06-08T06:59:47.825Z,14.00
2018-06-08T07:02:15.984Z,14.27
2018-06-08T07:04:44.920Z,14.27
2018-06-08T07:07:15.678Z,13.67
2018-06-08T07:12:56.396Z,13.20
2018-06-08T07:15:25.560Z,13.27
2018-06-08T07:17:55.494Z,13.57
2018-06-08T07:20:28.553Z,13.40
2018-06-08T07:23:03.617Z,14.63
2018-06-08T07:25:32.849Z,12.83
2018-06-08T07:28:01.267Z,15.23
2018-06-08T07:30:29.840Z,14.07
2018-06-08T07:33:23.435Z,13.57
2018-06-08T07:36:01.722Z,14.37
2018-06-08T07:38:36.643Z,13.40
2018-06-08T07:44:00.112Z,14.00
2018-06-08T07:46:29.751Z,13.40
2018-06-08T07:48:59.162Z,14.67
2018-06-08T07:51:28.011Z,13.10
2018-06-08T07:54:19.384Z,13.93
2018-06-08T07:56:49.838Z,13.93
2018-06-08T08:02:11.598Z,13.13
2018-06-08T08:04:43.024Z,13.40
2018-06-08T08:07:25.299Z,15.00
2018-06-08T08:10:54.826Z,14.40
2018-06-08T08:29:15.651Z,12.80
2018-06-08T08:31:45.853Z,12.20
2018-06-08T08:34:22.902Z,14.40
2018-06-08T08:37:17.395Z,13.67
2018-06-08T08:39:46.536Z,16.10
2018-06-08T08:48:18.048Z,14.53
2018-06-08T08:50:46.766Z,16.53
2018-06-08T08:53:17.332Z,15.43
2018-06-08T08:55:47.058Z,15.03
2018-06-08T08:58:15.513Z,13.97
2018-06-08T09:00:47.921Z,13.53
2018-06-08T09:03:16.284Z,13.80
2018-06-08T09:05:44.749Z,15.83
2018-06-08T09:08:17.154Z,13.80
2018-06-08T09:13:46.967Z,13.77
2018-06-08T09:16:15.092Z,14.00
2018-06-08T09:18:44.267Z,17.03
2018-06-08T09:21:12.225Z,16.97
2018-06-08T09:26:21.165Z,13.97
2018-06-08T09:29:09.003Z,13.77
2018-06-08T09:31:37.657Z,13.83
2018-06-08T09:34:10.774Z,14.57
2018-06-08T09:36:41.916Z,13.13
2018-06-08T09:39:12.729Z,14.23
2018-06-08T09:41:43.319Z,10.17
2018-06-08T09:44:11.791Z,10.77
2018-06-08T09:46:41.876Z,10.17
2018-06-08T09:49:11.022Z,9.73
2018-06-08T09:51:39.295Z,10.43
2018-06-08T09:56:50.971Z,11.10
2018-06-08T09:59:19.155Z,9.30
2018-06-08T10:01:47.173Z,8.60
2018-06-08T10:04:15.007Z,8.37
2018-06-08T10:06:42.948Z,8.73
2018-06-08T10:09:10.915Z,9.67
2018-06-08T10:11:38.680Z,9.10
2018-06-08T10:14:06.410Z,9.80
2018-06-08T10:16:34.254Z,8.70
2018-06-08T10:19:01.937Z,8.50
2018-06-08T10:21:29.698Z,8.00
2018-06-08T10:23:57.581Z,8.20
2018-06-08T10:26:26.100Z,7.87
2018-06-08T10:28:54.356Z,8.90
2018-06-08T10:31:22.299Z,10.17
2018-06-08T10:34:00.934Z,10.77
2018-06-08T10:36:28.836Z,9.93
2018-06-08T10:38:56.527Z,9.63
2018-06-08T10:41:28.128Z,10.40
2018-06-08T10:43:56.250Z,9.80
2018-06-08T10:46:24.847Z,10.07
2018-06-08T10:48:52.749Z,9.50
2018-06-08T10:51:22.615Z,8.83
2018-06-08T10:53:50.455Z,9.00
2018-06-08T10:56:18.162Z,8.70
2018-06-08T10:58:45.888Z,8.80
2018-06-08T11:01:13.567Z,8.67
2018-06-08T11:03:41.234Z,7.67
2018-06-08T11:06:14.775Z,8.40
2018-06-08T11:08:42.291Z,8.33
2018-06-08T11:11:20.733Z,7.70
2018-06-08T11:13:48.363Z,7.97
2018-06-08T11:16:16.021Z,7.10
2018-06-08T11:18:43.540Z,7.60
2018-06-08T11:21:11.185Z,7.17
2018-06-08T11:23:38.769Z,7.77
2018-06-08T11:26:06.343Z,7.40
2018-06-08T11:28:33.941Z,7.53
2018-06-08T11:31:03.830Z,7.70
2018-06-08T11:33:34.325Z,7.60
2018-06-08T11:36:02.447Z,7.10
2018-06-08T11:38:30.446Z,7.40
2018-06-08T11:40:58.185Z,7.13
2018-06-08T11:43:33.605Z,6.80
2018-06-08T11:46:01.570Z,6.97
2018-06-08T11:48:38.818Z,7.27
2018-06-08T11:51:06.679Z,8.20
2018-06-08T11:53:34.723Z,6.97
2018-06-08T11:56:02.632Z,6.97
2018-06-08T11:58:30.842Z,7.13
2018-06-08T12:00:59.151Z,7.30
2018-06-08T12:03:27.450Z,6.60
2018-06-08T12:05:55.692Z,6.40
2018-06-08T12:08:23.545Z,7.13
2018-06-08T12:10:51.914Z,7.00
2018-06-08T12:13:19.712Z,6.83
2018-06-08T12:18:35.892Z,8.40
2018-06-08T12:21:15.097Z,7.03
2018-06-08T12:23:43.248Z,6.80
2018-06-08T12:26:11.165Z,7.13
2018-06-08T12:28:39.145Z,6.80
2018-06-08T12:31:07.236Z,7.60
2018-06-08T12:33:35.200Z,6.70
2018-06-08T12:36:02.902Z,6.93
2018-06-08T12:38:30.609Z,7.27
2018-06-08T12:40:58.463Z,7.63
2018-06-08T12:43:26.537Z,7.20
2018-06-08T12:45:54.903Z,7.93
2018-06-08T12:48:22.777Z,8.00
2018-06-08T12:50:50.687Z,8.43
2018-06-08T12:53:18.368Z,7.77
2018-06-08T12:55:52.742Z,7.23
2018-06-08T12:58:20.340Z,7.50
2018-06-08T13:00:48.016Z,6.62
2018-06-08T13:03:15.667Z,7.00
2018-06-08T13:05:43.284Z,7.73
2018-06-08T13:08:10.873Z,7.23
2018-06-08T13:10:42.214Z,7.40
2018-06-08T13:13:09.852Z,7.30
2018-06-08T13:15:38.005Z,7.40
2018-06-08T13:18:05.688Z,7.50
2018-06-08T13:20:34.714Z,6.73
2018-06-08T13:23:02.804Z,6.40
2018-06-08T13:25:34.279Z,6.90
2018-06-08T13:28:02.249Z,6.57
2018-06-08T13:30:29.814Z,7.30
2018-06-08T13:32:57.495Z,7.33
2018-06-08T13:35:25.226Z,6.30
2018-06-08T13:37:52.870Z,6.23
2018-06-08T13:40:20.519Z,5.87
2018-06-08T13:42:48.187Z,7.30
2018-06-08T13:45:17.007Z,7.00
2018-06-08T13:47:44.544Z,6.70
2018-06-08T13:50:12.233Z,6.33
2018-06-08T13:52:39.869Z,6.70
2018-06-08T13:55:07.473Z,6.57
2018-06-08T13:57:35.093Z,7.17
2018-06-08T14:00:02.773Z,8.00
2018-06-08T14:02:50.685Z,6.83
2018-06-08T14:05:18.274Z,6.97
2018-06-08T14:07:45.942Z,7.40
2018-06-08T14:10:13.609Z,7.20
2018-06-08T14:12:41.327Z,7.30
2018-06-08T14:15:27.032Z,7.20
2018-06-08T14:17:54.671Z,7.73
2018-06-08T14:20:22.316Z,7.20
2018-06-08T14:22:49.990Z,7.07
2018-06-08T14:25:17.597Z,6.80
2018-06-08T14:27:45.271Z,7.23
2018-06-08T14:30:12.982Z,6.60
2018-06-08T14:32:45.842Z,7.30
2018-06-08T14:35:13.756Z,6.90
2018-06-08T14:37:41.599Z,8.00
2018-06-08T14:40:09.297Z,7.87
2018-06-08T14:42:36.987Z,8.30
2018-06-08T14:45:04.721Z,6.33
2018-06-08T14:47:32.457Z,8.50
2018-06-08T14:50:00.101Z,6.60
2018-06-08T14:52:27.811Z,6.83
2018-06-08T14:54:55.370Z,7.20
2018-06-08T14:57:22.958Z,7.50
2018-06-08T14:59:50.482Z,6.93
2018-06-08T15:02:18.118Z,7.60
2018-06-08T15:04:45.586Z,7.93
2018-06-08T15:07:13.256Z,7.20
2018-06-08T15:09:41.912Z,7.93
2018-06-08T15:12:09.549Z,8.37
2018-06-08T15:14:37.103Z,7.27
2018-06-08T15:17:04.766Z,6.83
2018-06-08T15:19:32.329Z,6.23
2018-06-08T15:21:59.851Z,7.23
2018-06-08T15:24:27.378Z,8.50
2018-06-08T15:26:54.885Z,8.03
2018-06-08T15:29:22.417Z,8.20
2018-06-08T15:31:50.022Z,8.43
2018-06-08T15:34:17.496Z,7.50
2018-06-08T15:36:45.082Z,8.00
2018-06-08T15:39:12.607Z,8.60
2018-06-08T15:41:40.224Z,9.90
2018-06-08T15:44:07.731Z,8.40
2018-06-08T15:46:35.338Z,9.97
2018-06-08T15:49:02.882Z,8.93
2018-06-08T15:51:30.388Z,8.90
2018-06-08T15:53:57.963Z,8.93
2018-06-08T15:56:25.440Z,10.03
2018-06-08T15:58:52.993Z,8.80
2018-06-08T16:01:20.546Z,8.93
2018-06-08T16:03:48.044Z,9.97
2018-06-08T16:06:15.557Z,9.57
2018-06-08T16:08:43.074Z,9.50
2018-06-08T16:11:10.611Z,9.67
2018-06-08T16:13:38.216Z,9.73
2018-06-08T16:16:05.778Z,10.10
2018-06-08T16:18:33.378Z,10.00
2018-06-08T16:21:04.561Z,9.60
2018-06-08T16:23:32.621Z,10.60
2018-06-08T16:26:00.511Z,9.67
2018-06-08T16:28:28.968Z,10.67
2018-06-08T16:30:56.628Z,11.30
2018-06-08T16:33:24.266Z,9.97
2018-06-08T16:35:52.446Z,12.17
2018-06-08T16:38:20.590Z,11.03
2018-06-08T16:40:48.494Z,12.40
2018-06-08T16:43:16.122Z,10.83
2018-06-08T16:45:43.981Z,11.37
2018-06-08T16:48:11.732Z,12.40
2018-06-08T16:50:39.574Z,14.00
2018-06-08T16:53:08.711Z,12.97
2018-06-08T16:55:36.368Z,13.53
2018-06-08T16:58:03.884Z,13.60
2018-06-08T17:00:43.999Z,11.00
2018-06-08T17:03:12.543Z,11.50
2018-06-08T17:05:40.166Z,11.90
2018-06-08T17:08:08.889Z,11.70
2018-06-08T17:13:11.231Z,11.33
2018-06-08T17:15:38.923Z,11.23
2018-06-08T17:18:06.550Z,11.43
2018-06-08T17:20:34.000Z,11.57
2018-06-08T17:23:01.576Z,11.77
2018-06-08T17:25:29.131Z,11.50
2018-06-08T17:27:56.712Z,12.23
2018-06-08T17:30:24.302Z,11.03
2018-06-08T17:32:51.902Z,10.70
2018-06-08T17:35:19.482Z,10.00
2018-06-08T17:37:58.101Z,11.93
2018-06-08T17:40:27.172Z,11.03
2018-06-08T17:42:56.515Z,12.60
2018-06-08T17:45:35.288Z,13.77
2018-06-08T17:48:39.596Z,13.10
2018-06-08T17:51:07.427Z,14.47
2018-06-08T17:53:46.283Z,14.43
2018-06-08T17:56:33.122Z,19.40
2018-06-08T17:59:08.651Z,19.90
2018-06-08T18:01:37.476Z,14.90
2018-06-08T18:04:05.595Z,13.60
2018-06-08T18:06:46.036Z,11.80
2018-06-08T18:09:14.357Z,10.63
2018-06-08T18:11:47.781Z,10.57
2018-06-08T18:14:26.590Z,9.37
2018-06-08T18:16:55.796Z,9.47
2018-06-08T18:19:24.238Z,8.50
2018-06-08T18:21:51.783Z,7.37
2018-06-08T18:24:19.422Z,8.73
2018-06-08T18:26:55.144Z,7.40
2018-06-08T18:29:38.887Z,7.60
2018-06-08T18:32:11.800Z,7.60
2018-06-08T18:34:46.456Z,8.43
2018-06-08T18:37:38.450Z,8.30
2018-06-08T18:40:09.051Z,8.10
2018-06-08T18:42:55.941Z,7.23
2018-06-08T18:45:24.911Z,8.50
2018-06-08T18:47:54.273Z,9.17
2018-06-08T18:50:33.993Z,8.50
2018-06-08T18:53:14.416Z,9.60
2018-06-08T18:58:40.044Z,10.70
2018-06-08T19:01:09.617Z,9.80
2018-06-08T19:03:42.641Z,8.83
2018-06-08T19:06:40.794Z,8.07
2018-06-08T19:22:16.558Z,7.83
2018-06-08T19:25:08.523Z,7.80
2018-06-08T19:36:43.819Z,7.50
2018-06-08T19:39:14.147Z,7.13
2018-06-08T19:42:07.564Z,6.87
2018-06-08T19:44:36.527Z,6.90
2018-06-08T19:47:04.993Z,8.33
2018-06-08T19:49:46.204Z,8.20
2018-06-08T19:52:13.959Z,7.00
2018-06-08T19:54:41.839Z,6.43
2018-06-08T19:57:09.537Z,6.93
2018-06-08T19:59:37.132Z,6.67
2018-06-08T20:02:10.903Z,5.53
2018-06-08T20:04:38.932Z,6.40
2018-06-08T20:07:06.710Z,5.97
2018-06-08T20:09:34.579Z,4.87
2018-06-08T20:12:02.368Z,5.57
2018-06-08T20:14:30.043Z,5.80
2018-06-08T20:16:57.727Z,5.80
2018-06-08T20:19:25.567Z,5.77
2018-06-08T20:27:45.876Z,5.30
2018-06-08T20:30:13.447Z,5.20
2018-06-08T20:32:51.002Z,5.40
2018-06-08T20:35:18.692Z,5.70
2018-06-08T20:37:50.710Z,5.07
2018-06-08T20:40:19.355Z,5.20
2018-06-08T20:42:46.957Z,4.80
2018-06-08T20:45:15.614Z,4.67
2018-06-08T20:53:33.654Z,5.67
2018-06-08T20:56:01.297Z,6.00
2018-06-08T20:58:29.415Z,5.20
2018-06-08T21:01:11.243Z,5.63
2018-06-08T21:03:38.948Z,5.80
2018-06-08T21:06:06.768Z,6.33
2018-06-08T21:08:34.569Z,6.57
2018-06-08T21:11:02.189Z,5.53
2018-06-08T21:13:30.880Z,6.33
2018-06-08T21:15:58.357Z,5.90
2018-06-08T21:18:25.986Z,6.17
2018-06-08T21:20:53.484Z,6.00
2018-06-08T21:23:20.990Z,5.93
2018-06-08T21:25:48.613Z,5.20
2018-06-08T21:28:16.229Z,5.60
2018-06-08T21:33:39.015Z,6.47
2018-06-08T21:36:06.596Z,6.20
2018-06-08T21:47:14.240Z,6.30
2018-06-08T21:49:41.944Z,5.53
2018-06-08T21:52:17.137Z,5.70
2018-06-08T21:54:44.720Z,5.77
2018-06-08T21:57:12.332Z,7.00
2018-06-08T21:59:43.808Z,5.87
2018-06-08T22:02:11.477Z,5.97
2018-06-08T22:04:39.210Z,6.83
2018-06-08T22:07:06.812Z,5.60
2018-06-08T22:09:40.796Z,5.90
2018-06-08T22:12:27.006Z,5.70
2018-06-08T22:14:56.578Z,5.80
2018-06-08T22:17:28.981Z,5.47
2018-06-08T22:20:15.470Z,6.43
2018-06-08T22:22:43.225Z,6.37
2018-06-08T22:25:29.347Z,6.53
2018-06-08T22:27:56.934Z,6.07
2018-06-08T22:30:24.576Z,6.77
2018-06-08T22:32:52.437Z,6.30
2018-06-08T22:35:20.024Z,5.80
2018-06-08T22:37:47.642Z,5.83
2018-06-08T22:40:17.314Z,5.77
2018-06-08T22:42:44.836Z,5.63
2018-06-08T22:45:12.434Z,6.50
2018-06-08T22:47:40.032Z,6.23
2018-06-08T22:50:07.676Z,6.33
2018-06-08T22:52:35.138Z,5.40
2018-06-08T22:55:02.756Z,6.57
2018-06-08T22:57:30.362Z,6.80
2018-06-08T22:59:57.989Z,6.57
2018-06-08T23:02:25.559Z,6.23
2018-06-08T23:04:53.128Z,6.27
2018-06-08T23:07:20.733Z,6.87
2018-06-08T23:09:48.285Z,6.93
2018-06-08T23:12:15.882Z,6.63
2018-06-08T23:14:43.538Z,6.00
2018-06-08T23:17:11.132Z,7.00
2018-06-08T23:19:57.477Z,6.73
2018-06-08T23:22:25.492Z,6.70
2018-06-08T23:24:53.201Z,6.30
2018-06-08T23:27:21.392Z,6.67
2018-06-08T23:29:49.098Z,5.97
2018-06-08T23:32:16.792Z,6.13
2018-06-08T23:34:44.446Z,5.87
2018-06-08T23:37:12.225Z,5.47
2018-06-08T23:39:40.087Z,5.77
2018-06-08T23:42:07.871Z,7.20
2018-06-08T23:44:35.582Z,6.30
2018-06-08T23:47:03.172Z,5.70
2018-06-08T23:49:30.715Z,6.40
2018-06-08T23:51:58.348Z,7.07
2018-06-08T23:54:25.959Z,5.27
2018-06-08T23:56:53.523Z,7.23
2018-06-08T23:59:21.082Z,6.77
